Brooten, MN (56316)

7:43 PM CST on November 25, 2014 (GMT -0600)
Glenwood Municipal | Change Station
CLOSE
Current Station
Airport
Location: Glenwood,
Elevation: 1394 ft
Nearby Weather Stations

Elev 1394 ft 45.64 °N, 95.32 °W | Updated 10 minutes ago

Overcast
Overcast
21 °F
Feels Like 11 °F
N
9
Wind Variable Wind from SE

Today
High -- | Low -- °F
--% Chance of Precip.
Yesterday
High -- | Low -- °F
Precip. -- in
7:32 AM 4:41 PM
Waxing Crescent, 15% visible
Pressure 29.92 in
Visibility 10.0 miles
Clouds Clear
Windchill 11 °F
Dew Point 14 °F
Humidity 74%
Rainfall 0.00 in
Snow Depth Not available.
UV 0 out of 12
Pollen .10 out of 12
Air Quality Not available.
Flu Activity Not available.
METAR KGHW 260133Z AUTO 13008KT 10SM CLR M06/M10 A2992 RMK AO2

More Conditions Fewer Conditions

Pressure 29.92 in
Visibility 10.0 miles
Clouds Clear
Windchill 11 °F
Dew Point 14 °F
Humidity 74%
Rainfall 0.00 in
Snow Depth Not available.
UV 0 out of 12
Pollen .10 out of 12
Air Quality Not available.
Flu Activity Not available.
METAR KGHW 260133Z AUTO 13008KT 10SM CLR M06/M10 A2992 RMK AO2

More Conditions Fewer Conditions

Nowcast | as of 5:59 PM CST on November 25, 2014

A wide area of snow is moving into the western half of Minnesota from the Dakotas...between now and midnight. The leading edge is moving or developing to the east at 20 mph...and will move across Browns Valley...Wheaton...and Ortonville to Elbow Lake...Alexandria...Morris...Glenwood...Appleton...Benson...and Willmar...Madison...Montevideo...Canby...calrkfield...and Granite Falls...Olivia...Marshall to Redwood Falls...and New Ulm...Sioux Falls to Worthington and Fairmont...between now and midnight. Up to an inch of new snow could accumulate over the western quarter of Minnesota this evening...to the west of Highway 71. The winds are expected to stay light from the southeast at 5 to 15 mph...and this will keep the snow from blowing or drifitng tonight.

×

10-Day Weather Forecast

Almanac

Astronomy

Nov. 25, 2014 Rise Set
Actual Time
Civil Twilight
Nautical Twilight
Astronomical Twilight
Moon
Length of Visible Light
Length of Day
Tomorrow will be .
, % of the Moon is Illuminated

Today's Extremes

State Highs State Lows

Community

WunderPhotos

Upload Photos

1,773,634 photos uploaded!

WunderBlogs® & News

Nearby

Air Quality

  Air Quality AQ Index Pollutant
Not available.

Snow Depth

Station Depth Elevation

Earthquake Activity

City Distance Mag. Time & Date
Minimum magnitude displayed is 2.5.

Coastal Water Temperatures

Place Temperature

Nearby Weather Stations